Time;durP1;ratioP1;P1;durP2;ratioP2;P2;SDS_P1;SDS_P2;PMS_P1;PMS_P2;Temp;Humidity;BMP_temperature;BMP_pressure;BME280_temperature;BME280_humidity;BME280_pressure;Samples;Min_cycle;Max_cycle;Signal;HPM_P1;HPM_P2
2023/09/13 00:03:30;;;;;;;13.57;12.38;;;19.10;99.90;;;20.06;95.06;97725.38;10327139;28;20239;-78
2023/09/13 00:08:34;;;;;;;13.35;12.25;;;19.10;99.90;;;20.12;95.41;97734.16;10331540;28;20315;-77
2023/09/13 00:13:37;;;;;;;14.05;12.85;;;19.20;99.90;;;20.24;94.91;97744.75;10326755;28;20273;-78
2023/09/13 00:18:42;;;;;;;14.90;13.50;;;19.20;99.90;;;20.12;97.31;97748.88;10327946;28;20285;-78
2023/09/13 00:23:46;;;;;;;14.38;13.13;;;19.20;99.90;;;19.97;99.08;97759.81;10330055;28;20235;-79
2023/09/13 00:28:50;;;;;;;14.07;12.88;;;19.10;99.90;;;19.93;99.88;97756.31;10333998;28;20288;-78
2023/09/13 00:33:54;;;;;;;13.50;12.32;;;19.10;99.90;;;19.73;99.20;97744.69;10329910;28;20231;-77
2023/09/13 00:38:58;;;;;;;14.32;13.10;;;19.00;99.90;;;19.85;100.00;97746.63;10340243;28;20231;-78
2023/09/13 00:44:01;;;;;;;13.52;12.32;;;19.10;99.90;;;19.92;100.00;97745.91;10325509;28;20334;-77
2023/09/13 00:49:06;;;;;;;13.35;12.20;;;19.10;99.90;;;19.86;100.00;97741.50;10324264;28;20922;-78
2023/09/13 00:54:10;;;;;;;14.45;13.10;;;19.10;99.90;;;19.84;100.00;97753.56;10323678;28;20317;-78
2023/09/13 00:59:14;;;;;;;14.05;12.88;;;19.10;99.90;;;19.65;100.00;97730.66;10324564;28;20231;-78
2023/09/13 01:04:18;;;;;;;14.55;13.13;;;19.00;99.90;;;19.50;100.00;97710.50;10327603;28;20262;-78
2023/09/13 01:09:22;;;;;;;15.35;13.73;;;18.90;99.90;;;19.44;100.00;97700.03;10331446;28;20234;-78
2023/09/13 01:14:25;;;;;;;14.65;13.27;;;18.90;99.90;;;19.28;100.00;97666.00;10326352;28;20226;-78
2023/09/13 01:19:47;;;;;;;15.68;14.18;;;18.70;99.90;;;19.10;100.00;97650.09;10327420;28;20280;-77
2023/09/13 01:25:31;;;;;;;15.38;14.07;;;18.60;99.90;;;19.13;100.00;97683.84;10331411;28;20277;-78
2023/09/13 01:30:36;;;;;;;17.65;15.85;;;18.50;99.90;;;18.85;100.00;97698.78;10322559;28;20729;-79
2023/09/13 01:35:39;;;;;;;15.65;14.40;;;18.30;99.90;;;18.73;100.00;97703.69;10326027;28;20237;-79
2023/09/13 01:40:45;;;;;;;17.67;16.08;;;18.20;99.90;;;18.73;100.00;97687.28;10334583;28;20259;-80
2023/09/13 01:45:51;;;;;;;16.27;14.88;;;18.20;99.90;;;18.69;100.00;97666.50;10330038;28;20222;-79
2023/09/13 01:50:55;;;;;;;17.17;15.57;;;18.20;99.90;;;18.66;100.00;97655.22;10337055;28;20230;-80
2023/09/13 01:55:58;;;;;;;16.75;15.32;;;18.10;99.90;;;18.72;100.00;97657.91;10332212;28;20273;-79
2023/09/13 02:01:03;;;;;;;18.25;16.50;;;18.20;99.90;;;18.72;100.00;97691.59;10329923;28;20219;-79
2023/09/13 02:06:06;;;;;;;17.55;16.00;;;18.20;99.90;;;18.74;100.00;97705.44;10326682;28;20215;-79
2023/09/13 02:11:10;;;;;;;17.42;15.93;;;18.20;99.90;;;18.76;100.00;97703.78;10336217;28;20334;-79
2023/09/13 02:16:20;;;;;;;18.30;16.38;;;18.20;99.90;;;18.71;100.00;97710.53;10331511;28;20318;-79
2023/09/13 02:21:24;;;;;;;16.85;15.15;;;18.10;99.90;;;18.75;100.00;97716.72;10327568;28;20250;-79
2023/09/13 02:26:27;;;;;;;17.45;15.73;;;18.20;99.90;;;18.83;100.00;97705.69;10331003;28;20288;-79
2023/09/13 02:31:32;;;;;;;17.55;16.05;;;18.20;99.90;;;18.85;100.00;97709.16;10333364;28;20227;-79
2023/09/13 02:36:35;;;;;;;17.77;16.23;;;18.30;99.90;;;18.87;100.00;97722.16;10331916;28;20234;-79
2023/09/13 02:41:39;;;;;;;17.25;15.68;;;18.30;99.90;;;18.88;100.00;97716.13;10336403;28;20231;-79
2023/09/13 02:46:43;;;;;;;17.27;15.63;;;18.20;99.90;;;18.88;100.00;97724.75;10339960;28;20222;-78
2023/09/13 02:51:47;;;;;;;16.98;15.38;;;18.20;99.90;;;18.98;100.00;97735.34;10336776;28;20669;-79
2023/09/13 02:56:52;;;;;;;17.20;15.70;;;18.20;99.90;;;18.82;100.00;97729.81;10340663;28;20237;-79
2023/09/13 03:01:57;;;;;;;15.93;14.50;;;18.10;99.90;;;18.78;100.00;97733.19;10347787;28;20223;-79
2023/09/13 03:07:01;;;;;;;17.55;15.90;;;18.10;99.90;;;18.84;100.00;97743.69;10337865;28;20233;-79
2023/09/13 03:12:05;;;;;;;16.88;15.38;;;18.10;99.90;;;18.77;100.00;97746.97;10339452;28;20234;-78
2023/09/13 03:17:11;;;;;;;16.83;15.30;;;18.10;99.90;;;18.76;100.00;97758.16;10352105;28;20227;-77
2023/09/13 03:22:14;;;;;;;14.80;13.52;;;18.10;99.90;;;18.80;100.00;97754.81;10349723;28;20227;-78
2023/09/13 03:27:17;;;;;;;16.25;14.63;;;18.20;99.90;;;18.87;100.00;97748.94;10344227;28;20242;-78
2023/09/13 03:32:22;;;;;;;14.63;13.38;;;18.20;99.90;;;18.82;100.00;97740.16;10336533;28;20789;-78
2023/09/13 03:37:25;;;;;;;16.75;15.05;;;18.20;99.90;;;18.89;100.00;97752.44;10334167;28;20270;-77
2023/09/13 03:42:28;;;;;;;14.90;13.48;;;18.20;99.90;;;18.88;100.00;97745.47;10325567;28;20313;-78
2023/09/13 03:47:34;;;;;;;15.50;14.20;;;18.20;99.90;;;18.88;100.00;97750.66;10312251;28;20671;-78
2023/09/13 03:52:38;;;;;;;16.40;14.85;;;18.20;99.90;;;18.95;100.00;97763.78;10311405;28;20245;-78
2023/09/13 03:57:41;;;;;;;14.32;13.13;;;18.20;99.90;;;18.81;100.00;97766.03;10321827;28;20329;-78
2023/09/13 04:02:46;;;;;;;14.95;13.55;;;18.10;99.90;;;18.82;100.00;97771.25;10312445;28;20705;-77
2023/09/13 04:07:50;;;;;;;14.15;13.05;;;18.10;99.90;;;18.74;100.00;97777.09;10305544;28;20230;-77
2023/09/13 04:12:54;;;;;;;15.70;13.98;;;18.00;99.90;;;18.72;100.00;97797.75;10301158;28;20326;-78
2023/09/13 04:17:59;;;;;;;15.32;13.93;;;18.00;99.90;;;18.74;100.00;97783.13;10309363;28;20223;-79
2023/09/13 04:23:02;;;;;;;16.33;14.75;;;18.00;99.90;;;18.78;100.00;97766.84;10309046;28;20219;-80
2023/09/13 04:28:06;;;;;;;16.20;14.68;;;18.00;99.90;;;18.72;100.00;97774.44;10310445;28;20223;-80
2023/09/13 04:33:11;;;;;;;15.48;14.07;;;18.00;99.90;;;18.69;100.00;97769.19;10328396;28;20747;-80
2023/09/13 04:38:14;;;;;;;15.07;13.60;;;18.00;99.90;;;18.62;100.00;97772.47;10343342;28;20241;-80
2023/09/13 04:43:23;;;;;;;15.95;13.85;;;17.90;99.90;;;18.62;100.00;97780.22;10332971;28;20227;-80
2023/09/13 04:48:43;;;;;;;14.40;13.20;;;17.90;99.90;;;18.33;100.00;97780.38;10325311;28;20234;-80
2023/09/13 04:53:47;;;;;;;13.50;12.38;;;17.60;99.90;;;18.23;100.00;97793.94;10290837;28;20286;-78
2023/09/13 04:58:51;;;;;;;13.80;12.52;;;17.50;99.90;;;18.29;100.00;97790.66;10332226;28;20226;-80
2023/09/13 05:03:56;;;;;;;12.95;11.85;;;17.50;99.90;;;18.26;100.00;97801.78;10341965;28;20231;-79
2023/09/13 05:09:00;;;;;;;14.80;13.50;;;17.60;99.90;;;18.30;100.00;97806.19;10333954;28;20231;-80
2023/09/13 05:14:11;;;;;;;15.32;13.90;;;17.60;99.90;;;18.34;100.00;97820.06;10329120;28;20223;-79
2023/09/13 05:19:16;;;;;;;13.52;12.32;;;17.60;99.90;;;18.38;100.00;97812.44;10329616;28;20257;-80
2023/09/13 05:24:19;;;;;;;15.57;14.18;;;17.70;99.90;;;18.51;100.00;97815.34;10306754;28;20313;-80
2023/09/13 05:29:22;;;;;;;15.93;14.57;;;17.80;99.90;;;18.74;100.00;97818.53;10293978;28;20267;-80
2023/09/13 05:34:28;;;;;;;15.02;13.63;;;17.90;99.90;;;18.75;100.00;97833.25;10292881;28;20239;-79
2023/09/13 05:39:31;;;;;;;15.40;14.00;;;17.90;99.90;;;18.72;100.00;97839.19;10334316;28;20227;-79
2023/09/13 05:44:34;;;;;;;14.43;13.13;;;17.90;99.90;;;18.73;100.00;97832.28;10328187;28;20236;-79
2023/09/13 05:49:39;;;;;;;12.77;11.68;;;18.00;99.90;;;18.87;100.00;97836.13;10333698;28;20767;-80
2023/09/13 05:54:42;;;;;;;14.65;13.45;;;18.10;99.90;;;19.15;100.00;97842.81;10331036;28;20292;-79
2023/09/13 05:59:45;;;;;;;14.40;13.10;;;18.40;99.90;;;19.31;100.00;97855.28;10333573;28;20231;-80
2023/09/13 06:04:50;;;;;;;14.48;13.07;;;18.50;99.90;;;19.51;100.00;97854.84;10322515;28;20230;-80
2023/09/13 06:09:53;;;;;;;14.55;13.35;;;18.60;99.90;;;19.42;100.00;97860.69;10339945;28;20310;-81
2023/09/13 06:14:57;;;;;;;15.18;13.20;;;18.60;99.90;;;19.57;100.00;97857.56;10329747;28;20318;-80
2023/09/13 06:20:02;;;;;;;14.73;13.43;;;18.70;99.90;;;19.73;100.00;97862.28;10331737;28;20234;-80
2023/09/13 06:25:08;;;;;;;13.90;12.68;;;18.90;99.90;;;20.07;100.00;97862.97;10333417;28;20246;-79
2023/09/13 06:30:14;;;;;;;14.40;13.00;;;19.10;99.90;;;20.39;100.00;97868.75;10340722;28;20223;-80
2023/09/13 06:35:19;;;;;;;14.23;12.93;;;19.40;99.90;;;20.53;100.00;97873.38;10321081;28;20269;-80
2023/09/13 06:40:22;;;;;;;13.23;12.13;;;19.50;99.90;;;20.56;100.00;97882.09;10317122;28;20677;-80
2023/09/13 06:45:37;;;;;;;14.25;12.95;;;19.50;99.90;;;20.60;100.00;97888.19;10326022;28;20227;-79
2023/09/13 06:51:02;;;;;;;13.80;12.35;;;19.60;99.90;;;21.04;100.00;97888.97;10322914;28;20246;-79
2023/09/13 06:56:09;;;;;;;12.70;11.60;;;20.00;99.90;;;21.34;99.81;97890.28;10329990;28;20727;-80
2023/09/13 07:01:16;;;;;;;10.43;9.52;;;20.20;99.90;;;21.41;97.99;97902.56;10328747;28;20243;-80
2023/09/13 07:06:23;;;;;;;12.43;10.15;;;20.40;99.90;;;21.46;96.83;97906.13;10320831;28;20322;-80
2023/09/13 07:11:28;;;;;;;10.48;9.48;;;20.40;99.90;;;21.57;96.50;97904.53;10338243;28;20284;-81
2023/09/13 07:16:32;;;;;;;9.15;8.35;;;20.40;99.90;;;21.74;95.36;97906.50;10332132;28;20243;-81
2023/09/13 07:21:37;;;;;;;7.13;6.40;;;20.60;99.90;;;21.71;92.57;97907.31;10322615;28;20286;-80
2023/09/13 07:26:40;;;;;;;5.30;4.90;;;20.60;99.90;;;21.97;90.89;97899.84;10335716;28;20227;-80
2023/09/13 07:31:44;;;;;;;6.18;5.68;;;20.80;99.90;;;21.94;90.60;97915.44;10342546;28;20761;-80
2023/09/13 07:36:49;;;;;;;6.25;5.75;;;20.80;99.90;;;22.04;91.06;97912.09;10326937;28;20227;-79
2023/09/13 07:41:52;;;;;;;6.28;5.78;;;20.90;99.90;;;22.13;91.27;97915.69;10337876;28;20276;-80
2023/09/13 07:46:55;;;;;;;5.35;4.95;;;21.10;99.90;;;22.23;88.45;97920.16;10338130;28;20227;-82
2023/09/13 07:52:00;;;;;;;4.78;4.47;;;21.10;99.90;;;22.25;86.20;97921.06;10326847;28;20223;-79
2023/09/13 07:57:04;;;;;;;5.07;4.57;;;21.10;99.90;;;21.94;86.65;97925.84;10327467;28;20242;-80
2023/09/13 08:02:07;;;;;;;4.45;4.05;;;20.90;99.90;;;21.87;86.88;97931.84;10335340;28;20244;-81
2023/09/13 08:07:12;;;;;;;5.28;4.78;;;20.80;99.90;;;21.88;86.53;97941.38;10332179;28;20230;-81
2023/09/13 08:12:15;;;;;;;4.65;4.25;;;20.80;99.90;;;22.03;85.96;97938.09;10328296;28;20223;-81
2023/09/13 08:17:19;;;;;;;5.30;4.78;;;21.10;99.90;;;22.31;86.36;97931.53;10335045;28;20281;-80
2023/09/13 08:22:24;;;;;;;5.25;4.82;;;21.30;99.90;;;22.42;84.72;97945.56;10338307;28;20297;-80
2023/09/13 08:27:41;;;;;;;5.47;5.05;;;21.30;99.90;;;22.28;85.41;97944.53;10334282;28;20235;-80
2023/09/13 08:32:45;;;;;;;5.22;4.82;;;21.20;99.90;;;22.11;85.28;97954.69;10331345;28;20347;-81
2023/09/13 08:37:49;;;;;;;5.57;5.07;;;21.00;99.90;;;21.89;86.61;97961.38;10338753;28;20228;-79
2023/09/13 08:42:56;;;;;;;6.10;5.57;;;20.90;99.90;;;21.88;88.01;97970.00;10332365;28;20241;-79
2023/09/13 08:48:01;;;;;;;5.53;5.05;;;20.80;99.90;;;21.82;89.10;97978.59;10331301;28;20215;-81
2023/09/13 08:53:07;;;;;;;5.40;4.88;;;20.70;99.90;;;21.89;88.54;97974.38;10339670;28;20230;-80
2023/09/13 08:58:10;;;;;;;4.75;4.40;;;20.90;99.90;;;21.83;88.06;97989.88;10334917;28;20241;-79
2023/09/13 09:03:16;;;;;;;4.50;4.10;;;20.90;99.90;;;21.88;88.25;97992.56;10334056;28;20215;-80
2023/09/13 09:08:23;;;;;;;4.20;3.83;;;21.10;99.90;;;21.98;86.55;97989.25;10334345;28;20238;-78
2023/09/13 09:13:29;;;;;;;4.20;3.90;;;21.20;99.90;;;22.07;86.00;97998.91;10326807;28;20231;-80
2023/09/13 09:18:35;;;;;;;4.00;3.70;;;21.20;99.90;;;22.15;82.89;97997.28;10333405;28;20232;-81
2023/09/13 09:23:41;;;;;;;3.75;3.45;;;21.20;99.90;;;22.33;82.15;97997.56;10324986;28;20227;-81
2023/09/13 09:28:46;;;;;;;4.72;4.20;;;21.40;99.90;;;22.04;83.27;98011.03;10326848;28;20227;-80
2023/09/13 09:34:03;;;;;;;3.80;3.55;;;21.20;99.90;;;22.06;84.99;98016.25;10327947;28;20310;-79
2023/09/13 09:39:08;;;;;;;4.10;3.70;;;21.10;99.90;;;21.92;83.78;98008.25;10332748;28;21013;-80
2023/09/13 09:44:12;;;;;;;4.63;4.22;;;21.00;99.90;;;21.84;83.88;98016.81;10327333;28;20226;-80
2023/09/13 09:49:15;;;;;;;4.25;3.95;;;20.90;99.90;;;21.84;84.31;98022.03;10334250;28;20235;-80
2023/09/13 09:54:20;;;;;;;4.70;4.40;;;20.80;99.90;;;21.88;83.46;98016.88;10330614;28;20775;-80
2023/09/13 09:59:29;;;;;;;4.65;4.25;;;20.90;99.90;;;21.68;86.21;98015.69;10333129;28;20253;-80
2023/09/13 10:04:45;;;;;;;4.43;4.03;;;20.80;99.90;;;21.57;88.38;98018.13;10327345;28;20231;-80
2023/09/13 10:09:51;;;;;;;4.60;4.20;;;20.80;99.90;;;21.59;89.17;98022.50;10329995;28;20259;-80
2023/09/13 10:14:54;;;;;;;4.10;3.80;;;20.70;99.90;;;21.65;88.46;98015.66;10329414;28;20285;-79
2023/09/13 10:20:01;;;;;;;4.70;4.40;;;20.80;99.90;;;21.77;86.51;98010.63;10325760;28;20667;-79
2023/09/13 10:25:12;;;;;;;4.50;4.10;;;20.80;99.90;;;21.76;87.15;98016.69;10325212;28;20281;-79
2023/09/13 10:30:21;;;;;;;4.80;4.40;;;20.90;99.90;;;21.77;88.68;98027.09;10324057;28;20222;-80
2023/09/13 10:35:26;;;;;;;4.82;4.43;;;20.90;99.90;;;21.86;87.26;98017.69;10327073;28;20325;-79
2023/09/13 10:40:38;;;;;;;4.57;4.28;;;20.90;99.90;;;22.19;84.42;98022.53;10325102;28;20226;-80
2023/09/13 10:45:42;;;;;;;4.45;4.05;;;21.20;99.90;;;22.34;84.48;98020.13;10329487;28;20681;-79
2023/09/13 10:50:45;;;;;;;4.18;3.83;;;21.40;99.90;;;22.40;85.54;98020.22;10324450;28;20235;-80
2023/09/13 10:55:51;;;;;;;4.13;3.83;;;21.50;99.90;;;22.45;86.34;98028.09;10332146;28;20231;-80
2023/09/13 11:00:55;;;;;;;4.60;4.30;;;21.50;99.90;;;22.53;85.13;98023.88;10344446;28;20258;-79
2023/09/13 11:05:59;;;;;;;4.00;3.70;;;21.60;99.90;;;22.54;83.46;98022.13;10332532;28;20301;-81
2023/09/13 11:11:16;;;;;;;4.82;4.43;;;21.60;99.90;;;22.93;83.09;98012.16;10335492;28;20214;-80
2023/09/13 11:16:20;;;;;;;4.45;4.15;;;21.90;99.90;;;23.45;79.18;98000.50;10337047;28;20966;-80
2023/09/13 11:21:27;;;;;;;4.75;4.35;;;22.50;99.90;;;23.66;76.32;98011.09;10340771;28;20234;-80
2023/09/13 11:26:46;;;;;;;4.13;3.83;;;22.60;99.90;;;23.74;76.70;98008.56;10341320;28;20281;-79
2023/09/13 11:32:00;;;;;;;4.05;3.78;;;22.60;99.90;;;23.79;75.82;98009.50;10336675;28;20227;-80
2023/09/13 11:37:07;;;;;;;4.00;3.70;;;22.70;99.90;;;24.11;71.96;98009.69;10333335;28;20218;-79
2023/09/13 11:42:12;;;;;;;3.90;3.60;;;23.10;99.90;;;24.13;72.81;98005.34;10311658;28;20223;-80
2023/09/13 11:47:36;;;;;;;4.35;4.05;;;23.00;99.90;;;24.20;72.47;98009.72;10300524;28;20231;-80
2023/09/13 11:53:13;;;;;;;3.85;3.65;;;23.00;99.90;;;23.89;72.10;97997.34;10298150;28;20282;-79
2023/09/13 11:58:18;;;;;;;4.20;3.78;;;22.80;99.90;;;24.04;71.74;98002.69;10287507;28;20254;-80
2023/09/13 12:03:39;;;;;;;4.05;3.75;;;22.90;99.90;;;24.40;71.23;98007.22;10303057;28;20219;-78
2023/09/13 12:08:48;;;;;;;3.55;3.25;;;23.50;99.90;;;24.41;69.61;97997.63;10315554;28;20229;-79
2023/09/13 12:13:54;;;;;;;4.20;3.83;;;23.30;99.90;;;24.68;69.14;97995.16;10321313;28;20726;-79
2023/09/13 12:19:01;;;;;;;6.80;4.00;;;23.50;99.90;;;24.83;69.38;97991.72;10342552;28;20317;-79
2023/09/13 12:24:06;;;;;;;4.10;3.80;;;23.80;99.90;;;24.96;67.69;97982.16;10342982;28;20938;-80
2023/09/13 12:29:10;;;;;;;3.63;3.33;;;23.80;99.90;;;24.96;67.16;97987.41;10302548;28;20231;-80
2023/09/13 12:34:14;;;;;;;3.70;3.42;;;23.60;99.90;;;24.90;67.75;97983.03;10298800;28;20224;-80
2023/09/13 12:39:17;;;;;;;4.32;3.92;;;23.70;99.90;;;24.95;64.99;97973.44;10324921;28;20262;-80
2023/09/13 12:44:22;;;;;;;4.60;3.75;;;23.70;99.90;;;24.76;66.90;97983.88;10333161;28;20298;-80
2023/09/13 12:49:25;;;;;;;3.83;3.53;;;23.60;99.90;;;24.54;67.18;97993.38;10336577;28;20254;-80
2023/09/13 12:54:29;;;;;;;3.88;3.58;;;23.40;99.90;;;24.51;68.91;97994.22;10334079;28;20289;-80
2023/09/13 12:59:44;;;;;;;4.00;3.70;;;23.40;99.90;;;24.27;69.33;97995.84;10340332;28;20241;-81
2023/09/13 13:04:48;;;;;;;3.63;3.33;;;23.20;99.90;;;24.52;68.03;97988.13;10332830;28;20244;-81
2023/09/13 13:09:52;;;;;;;4.20;3.80;;;23.40;99.90;;;24.65;66.38;97982.09;10342519;28;20227;-81
2023/09/13 13:14:58;;;;;;;4.05;3.75;;;23.40;99.90;;;24.83;64.37;97980.38;10328520;28;20227;-81
2023/09/13 13:20:07;;;;;;;4.10;3.80;;;23.70;99.90;;;24.87;64.06;97983.03;10336222;28;20227;-79
2023/09/13 13:25:28;;;;;;;4.53;4.22;;;23.80;99.90;;;24.89;65.84;97975.16;10344932;28;20619;-78
2023/09/13 13:30:34;;;;;;;4.25;3.85;;;23.90;99.90;;;25.01;63.72;97976.94;10329730;28;20314;-79
2023/09/13 13:35:38;;;;;;;3.72;3.42;;;24.10;99.90;;;24.90;63.58;97982.16;10335941;28;21858;-80
2023/09/13 13:40:41;;;;;;;3.70;3.40;;;24.00;99.90;;;25.07;62.25;97974.34;10329541;28;20226;-79
2023/09/13 13:45:46;;;;;;;4.13;3.92;;;24.00;99.90;;;24.94;61.89;97973.44;10336274;28;20258;-80
2023/09/13 13:50:49;;;;;;;4.82;4.43;;;24.00;99.90;;;24.78;63.96;97966.41;10338750;28;20253;-80
2023/09/13 13:55:52;;;;;;;4.18;3.88;;;23.80;99.90;;;24.83;64.39;97967.31;10331615;28;20257;-80
2023/09/13 14:00:58;;;;;;;4.68;4.20;;;23.70;99.90;;;24.87;64.49;97969.94;10337293;28;20703;-79
2023/09/13 14:06:03;;;;;;;4.40;4.10;;;23.70;99.90;;;24.79;64.54;97978.66;10323765;28;20234;-80
2023/09/13 14:11:06;;;;;;;5.07;4.65;;;23.70;99.90;;;24.67;65.33;97979.50;10318874;28;20214;-79
2023/09/13 14:16:11;;;;;;;4.30;4.00;;;23.50;99.90;;;24.58;65.63;97979.44;10325952;28;20249;-80
2023/09/13 14:21:14;;;;;;;4.72;4.32;;;23.40;99.90;;;24.57;66.70;97980.31;10332840;28;20330;-79
2023/09/13 14:26:18;;;;;;;4.68;4.28;;;23.40;99.90;;;24.68;65.92;97979.47;10331230;28;20231;-79
2023/09/13 14:31:22;;;;;;;4.47;4.18;;;23.40;99.90;;;24.42;66.74;97974.13;10329259;28;20261;-80
2023/09/13 14:36:26;;;;;;;5.15;4.75;;;23.50;99.90;;;24.38;66.23;97971.50;10339312;28;20229;-80
2023/09/13 14:41:29;;;;;;;5.03;4.57;;;23.40;99.90;;;24.50;66.79;97971.59;10326666;28;20226;-78
2023/09/13 14:46:34;;;;;;;4.80;4.40;;;23.50;99.90;;;24.37;68.18;97972.38;10334325;28;20254;-80
2023/09/13 14:51:38;;;;;;;4.78;4.45;;;23.40;99.90;;;24.36;67.71;97981.94;10322311;28;20695;-79
2023/09/13 14:56:42;;;;;;;5.32;4.32;;;23.40;99.90;;;24.28;65.84;97984.53;10319919;28;20675;-79
2023/09/13 15:01:47;;;;;;;4.60;4.20;;;23.40;99.90;;;24.42;65.56;97978.50;10314504;28;20243;-81
2023/09/13 15:06:52;;;;;;;4.50;4.10;;;23.40;99.90;;;24.33;65.34;97978.47;10304142;28;20754;-81
2023/09/13 15:11:56;;;;;;;4.60;4.28;;;23.30;99.90;;;24.38;66.92;97982.84;10325188;28;20249;-84
2023/09/13 15:17:01;;;;;;;4.82;4.05;;;23.30;99.90;;;24.36;66.92;97984.56;10339708;28;20269;-83
2023/09/13 15:22:04;;;;;;;6.93;6.43;;;23.20;99.90;;;24.21;66.18;97995.81;10335146;28;20227;-80
2023/09/13 15:27:08;;;;;;;5.10;4.70;;;23.10;99.90;;;23.85;66.15;97993.00;10316403;28;20927;-82
2023/09/13 15:32:14;;;;;;;4.88;4.55;;;22.80;99.90;;;23.59;68.19;97991.03;10316311;28;20765;-79
2023/09/13 15:37:17;;;;;;;5.15;4.60;;;22.70;99.90;;;23.48;69.31;97996.16;10318536;28;20708;-80
2023/09/13 15:42:21;;;;;;;5.53;5.03;;;22.60;99.90;;;23.37;71.21;97988.25;10314357;28;20245;-80
2023/09/13 15:47:25;;;;;;;5.50;5.00;;;22.50;99.90;;;23.26;72.61;97989.88;10322202;28;20271;-81
2023/09/13 15:52:29;;;;;;;5.45;4.95;;;22.30;99.90;;;23.26;72.88;97994.25;10341312;28;20223;-80
2023/09/13 15:57:32;;;;;;;5.75;5.25;;;22.20;99.90;;;23.35;72.61;97995.22;10338957;28;20239;-79
2023/09/13 16:02:37;;;;;;;4.90;4.60;;;22.30;99.90;;;23.38;73.36;97995.22;10348295;28;20227;-80
2023/09/13 16:07:41;;;;;;;4.97;4.65;;;22.30;99.90;;;23.40;72.88;98003.06;10351723;28;20685;-80
2023/09/13 16:12:44;;;;;;;5.20;4.80;;;22.20;99.90;;;23.28;72.67;98003.81;10344666;28;20227;-80
2023/09/13 16:17:49;;;;;;;5.70;5.20;;;22.20;99.90;;;23.19;74.50;98008.97;10342621;28;20255;-80
2023/09/13 16:22:54;;;;;;;5.53;5.00;;;22.20;99.90;;;23.13;74.17;98003.69;10332490;28;20246;-81
2023/09/13 16:27:57;;;;;;;4.75;4.35;;;22.20;99.90;;;23.21;73.13;98007.25;10326186;28;20318;-79
2023/09/13 16:33:02;;;;;;;4.70;4.40;;;22.20;99.90;;;23.09;72.36;97996.69;10345366;28;20293;-80
2023/09/13 16:38:05;;;;;;;4.68;4.28;;;22.20;99.90;;;23.11;71.41;98000.19;10350536;28;20223;-78
2023/09/13 16:43:20;;;;;;;4.93;4.07;;;22.10;99.90;;;23.09;71.35;98007.13;10352077;28;20226;-80
2023/09/13 16:48:26;;;;;;;5.00;4.60;;;22.10;99.90;;;22.92;71.64;97999.09;10342870;28;20231;-82
2023/09/13 16:53:37;;;;;;;5.05;4.30;;;22.00;99.90;;;22.83;72.31;98010.28;10349316;28;20294;-80
2023/09/13 16:58:40;;;;;;;4.88;4.50;;;21.90;99.90;;;22.75;72.42;98021.50;10331751;28;20235;-82
2023/09/13 17:03:48;;;;;;;4.32;4.03;;;21.80;99.90;;;22.58;73.31;98029.16;10329565;28;20227;-81
2023/09/13 17:08:53;;;;;;;4.57;4.25;;;21.60;99.90;;;22.40;74.02;98033.22;10320160;28;20790;-80
2023/09/13 17:13:57;;;;;;;5.57;5.18;;;21.40;99.90;;;22.23;76.34;98040.84;10324996;28;20238;-80
2023/09/13 17:19:02;;;;;;;5.32;4.93;;;21.30;99.90;;;22.04;77.36;98044.88;10321881;28;20228;-80
2023/09/13 17:24:06;;;;;;;5.55;5.15;;;21.20;99.90;;;21.80;78.99;98058.41;10333638;28;20226;-80
2023/09/13 17:29:09;;;;;;;6.72;5.85;;;20.90;99.90;;;21.65;80.39;98050.34;10330016;28;20231;-82
2023/09/13 17:34:14;;;;;;;6.50;5.72;;;20.70;99.90;;;21.61;81.26;98060.69;10329559;28;20222;-81
2023/09/13 17:39:17;;;;;;;5.63;5.22;;;20.60;99.90;;;21.52;82.20;98059.69;10337169;28;20301;-82
2023/09/13 17:44:21;;;;;;;5.88;5.45;;;20.50;99.90;;;21.44;82.41;98058.66;10324051;28;20219;-82
2023/09/13 17:49:26;;;;;;;6.40;5.90;;;20.50;99.90;;;21.39;82.90;98069.84;10323553;28;20238;-82
2023/09/13 17:54:29;;;;;;;6.10;5.70;;;20.40;99.90;;;21.29;83.96;98079.16;10325008;28;20231;-81
2023/09/13 17:59:33;;;;;;;6.55;6.05;;;20.40;99.90;;;21.24;85.90;98086.00;10322190;28;20224;-82
2023/09/13 18:04:38;;;;;;;6.28;5.78;;;20.40;99.90;;;21.23;85.94;98100.75;10327591;28;20223;-82
2023/09/13 18:09:42;;;;;;;6.10;5.70;;;20.30;99.90;;;21.13;86.24;98088.41;10335116;28;20688;-82
2023/09/13 18:14:46;;;;;;;5.55;5.15;;;20.20;99.90;;;20.98;86.48;98095.91;10327526;28;20221;-81
2023/09/13 18:19:50;;;;;;;5.60;5.20;;;20.10;99.90;;;20.92;86.61;98109.66;10327088;28;20522;-83
2023/09/13 18:24:54;;;;;;;6.00;5.50;;;20.10;99.90;;;20.92;87.78;98114.88;10329108;28;20322;-83
2023/09/13 18:29:58;;;;;;;5.97;5.43;;;20.00;99.90;;;20.87;88.32;98114.75;10332268;28;20270;-82
2023/09/13 18:35:04;;;;;;;5.72;5.30;;;20.00;99.90;;;20.88;87.58;98123.44;10324295;28;20818;-81
2023/09/13 18:40:09;;;;;;;6.28;5.80;;;20.00;99.90;;;20.85;88.16;98119.03;10319761;28;20309;-82
2023/09/13 18:45:12;;;;;;;5.30;4.97;;;20.00;99.90;;;20.89;87.70;98130.41;10326701;28;20219;-80
2023/09/13 18:50:17;;;;;;;6.10;5.63;;;19.90;99.90;;;20.88;88.79;98128.63;10312138;28;20648;-82
2023/09/13 18:55:22;;;;;;;5.60;5.20;;;19.90;99.90;;;20.75;89.54;98134.44;10320309;28;20223;-83
2023/09/13 19:00:27;;;;;;;6.40;5.80;;;19.80;99.90;;;20.70;89.50;98142.13;10322241;28;20314;-83
2023/09/13 19:05:34;;;;;;;5.90;5.40;;;19.80;99.90;;;20.63;89.88;98143.72;10310722;28;20578;-81
2023/09/13 19:10:45;;;;;;;6.40;5.90;;;19.70;99.90;;;20.62;89.96;98152.31;10317736;28;20227;-85
2023/09/13 19:15:59;;;;;;;6.88;6.28;;;19.70;99.90;;;20.60;90.42;98150.53;10319762;28;20227;-82
2023/09/13 19:21:06;;;;;;;5.80;5.30;;;19.70;99.90;;;20.62;89.93;98159.25;10318657;28;20222;-83
2023/09/13 19:26:09;;;;;;;5.93;5.43;;;19.70;99.90;;;20.62;90.44;98154.91;10333030;28;20687;-83
2023/09/13 19:31:13;;;;;;;6.30;5.70;;;19.70;99.90;;;20.54;90.03;98159.06;10322720;28;20273;-81
2023/09/13 19:36:18;;;;;;;6.30;5.70;;;19.70;99.90;;;20.50;90.06;98171.94;10311795;28;20223;-83
2023/09/13 19:41:27;;;;;;;6.38;5.88;;;19.60;99.90;;;20.56;90.53;98170.38;10303006;28;20663;-84
2023/09/13 19:46:30;;;;;;;5.90;5.50;;;19.60;99.90;;;20.55;90.97;98178.16;10315960;28;20239;-80
2023/09/13 19:51:35;;;;;;;5.75;5.35;;;19.60;99.90;;;20.47;91.20;98184.00;10312099;28;20712;-81
2023/09/13 19:56:39;;;;;;;7.20;6.50;;;19.60;99.90;;;20.47;92.28;98189.19;10311559;28;20227;-81
2023/09/13 20:01:43;;;;;;;6.28;5.78;;;19.60;99.90;;;20.41;93.64;98198.56;10316811;28;20696;-82
2023/09/13 20:06:48;;;;;;;7.05;6.13;;;19.50;99.90;;;20.35;93.57;98201.03;10315673;28;20223;-80
2023/09/13 20:12:02;;;;;;;6.15;5.72;;;19.30;99.90;;;20.24;94.14;98206.81;10316117;28;20462;-82
2023/09/13 20:17:06;;;;;;;6.55;5.95;;;19.30;99.90;;;20.24;94.24;98204.22;10319858;28;20624;-81
2023/09/13 20:22:11;;;;;;;6.70;6.10;;;19.30;99.90;;;20.25;93.95;98213.75;10312126;28;20231;-81
2023/09/13 20:27:14;;;;;;;6.30;5.80;;;19.30;99.90;;;20.25;94.27;98218.06;10319764;28;20274;-80
2023/09/13 20:32:18;;;;;;;6.85;6.35;;;19.30;99.90;;;20.27;94.36;98220.72;10325356;28;20340;-80
2023/09/13 20:37:23;;;;;;;6.90;6.40;;;19.30;99.90;;;20.14;95.25;98220.41;10314997;28;20865;-82
2023/09/13 20:42:26;;;;;;;7.43;6.82;;;19.20;99.90;;;20.06;95.55;98226.25;10322174;28;20234;-82
2023/09/13 20:47:30;;;;;;;7.03;6.43;;;19.20;99.90;;;20.01;95.87;98232.19;10330159;28;20245;-83
2023/09/13 20:52:35;;;;;;;7.43;6.82;;;19.10;99.90;;;19.96;96.61;98243.31;10325971;28;20286;-81
2023/09/13 20:57:39;;;;;;;7.43;6.82;;;19.10;99.90;;;19.89;97.67;98251.78;10325719;28;20227;-82